Southwest Oregon Regional Airport
KOTH : now visible

Airfield :











YOU CAN JOIN US ON...

 
LOGIN :

Register | Disclaimer

   EN    FR    IT 

 









Legend :    VFR   Marginal VFR   IFR   Intensive IFR   Very Intensive IFR
Visi :
Ceiling :
>= 8 km
>= 3000ft
5 to 8 km
1000 to 3000 ft
1500m to 5 km
500 to 1000 ft
800 to 1500m
200 to 500 ft
< 800m
< 200 ft
Symbols :   Thunderstorms  Fog  Heavy snow  Heavy precipitations  Wind > 20 kt







- Airport Elevation : 17 ft
- IATA code : OTH


KOTH - Southwest Oregon Regional

CURRENT METAR :
  • 181156Z AUTO 17011KT 10SM FEW019 BKN047 OVC055 14/13 A2980 RMK AO2 LTG DSNT NW TSE22RAB03E53 SLP091 P0022 60069 70133 T01440133 10156 20144 55010

EXPIRED METARs :
  • 181128Z AUTO 18011G16KT 9SM RA FEW018 BKN050 OVC080 14/14 A2981 RMK AO2 TSE22RAB03 P0005
  • 181056Z AUTO 17010KT 10SM VCTS FEW019 SCT028 BKN065 15/14 A2980 RMK AO2 LTG DSNT NW TSB34RAE52 SLP090 P0019 T01500139
  • 181040Z AUTO 17007KT 8SM VCTS RA FEW012 BKN020 OVC046 15/14 A2981 RMK AO2 LTG DSNT SW AND W TSB34 P0018
  • 181012Z AUTO 13005KT 6SM -RA BR SCT011 BKN024 OVC032 15/14 A2981 RMK AO2 LTG DSNT W P0008
  • 180956Z AUTO 18006KT 7SM +RA BKN011 BKN017 OVC025 15/14 A2982 RMK AO2 SLP096 P0024 T01500144
  • 180921Z AUTO 17009KT 8SM -RA FEW015 BKN026 OVC039 15/14 A2982 RMK AO2 P0017
  • 180856Z AUTO 19008KT 10SM -RA FEW032 SCT044 BKN075 16/14 A2983 RMK AO2 RAB0758E12B36 SLP101 P0003 60004 T01560144 58002

TAF KOTH
Valid from the 18 at 12:00 until the 19 at 12:00 UTC


181144Z 1812/1912 18012G18KT 4SM -SHRA VCTS BKN020 BKN050CB
FM181600 18007KT 3SM -SHRA BR BKN015 OVC035
FM181800 21008KT P6SM VCSH BKN020 OVC040
FM190400 VRB03KT 5SM BR VCSH OVC015
No reported NOTAMs for that airfield.



MET'MAP, your aeronautical weather chart ! - Copyright ORBIFLY December 2007 - Disclaimer

ORBIFLY MET'MAP TEAM :

Programming & Development : Alexandra Zaïnal
Concept & Development : Baudouin d'Aumeries
Co-Development & Prog : Marc-Olivier Méhu
Technical & hardware support : Manuel Goepfert

Contact : metmap@orbifly.com




SOURCES & CREDITS :

   NOAA       Earth
Advisory